Daleville, Indiana
Current Conditions -  °F | °C
As of 12:53 AM on Sunday 23 Nov 2014 (Local Time) from KMIE Reporting Station
Light Rain Light Rain  
Wind Chill: 43°   Ceiling: 6000
Heat Index: 48°   Visibility: 10mi
Dew Point: 41°   Wind: 10mph
Humidity: 77%   Direction: 210°SSW
Pressure: 30"   Gusts: NA
Location:  40.12°N, 85.56°W
Report Text: KMIE 230553Z AUTO 21009KT 10SM -RA BKN060 OVC080 09/05 A3000 RMK AO2 RAB0457 SLP158 P0003 60003 T00890050 10117 20089 53002
Loading
Personal Weather Stations






























Interactive Weather Map New forecast layout! Learn more

10-Day Weather Forecast

Advertisements
Track Severe Weather on mobile